This is the latest recevied weather packets stored in our database for station/object KD5UIG. If no packets are shown the sender has not sent any weather packets the latest 10 day(s).
| Time | Temp. | Humidity | Pressure | Rain* | Wind** | Luminosity | Snow |
|---|---|---|---|---|---|---|---|
| 1777689657 | 16.11° C | 69% | 1018.4 hPa | 0 mm | - | 0 W/m² | - |
| 1777689357 | 16.11° C | 68% | 1018.3 hPa | 0 mm | - | 0 W/m² | - |
| 1777686351 | 17.22° C | 66% | 1017.4 hPa | 0 mm | - | 0 W/m² | - |
| 1777686054 | 17.22° C | 64% | 1017.3 hPa | 0 mm | - | 0 W/m² | - |
| 1777684553 | 17.78° C | 59% | 1016.9 hPa | 0 mm | - | 0 W/m² | - |
| 1777683054 | 17.78° C | 59% | 1016.6 hPa | 0 mm | - | 7 W/m² | - |
| 1777682454 | 18.33° C | 60% | 1016.6 hPa | 0 mm | - | 19 W/m² | - |
| 1777680955 | 18.33° C | 59% | 1016.2 hPa | 0 mm | - | 35 W/m² | - |
| 1777678255 | 18.89° C | 58% | 1015.6 hPa | 0 mm | - | 81 W/m² | - |
| 1777677656 | 18.89° C | 57% | 1015.5 hPa | 0 mm | - | 102 W/m² | - |
| 1777676155 | 19.44° C | 56% | 1015.5 hPa | 0 mm | - | 120 W/m² | - |
| 1777675255 | 18.89° C | 57% | 1015.5 hPa | 0 mm | - | 146 W/m² | - |
| 1777674358 | 18.89° C | 56% | 1015.4 hPa | 0 mm | - | 167 W/m² | - |
| 1777673454 | 19.44° C | 56% | 1015.2 hPa | 0 mm | - | 174 W/m² | - |
| 1777671964 | 19.44° C | 57% | 1015.4 hPa | 0 mm | - | 318 W/m² | - |
| 1777669556 | 18.33° C | 59% | 1015.9 hPa | 0 mm | - | 221 W/m² | - |
| 1777668956 | 18.33° C | 59% | 1016.1 hPa | 0 mm | - | 213 W/m² | - |
| 1777667459 | 18.33° C | 58% | 1016.4 hPa | 0 mm | - | 202 W/m² | - |
| 1777666554 | 18.33° C | 57% | 1016.5 hPa | 0 mm | - | 167 W/m² | - |
| 1777664158 | 18.33° C | 59% | 1015.9 hPa | 0 mm | - | 250 W/m² | - |
| 1777663855 | 18.33° C | 57% | 1015.8 hPa | 0 mm | - | 278 W/m² | - |
| 1777663256 | 18.89° C | 57% | 1015.9 hPa | 0 mm | - | 260 W/m² | - |
| 1777662359 | 18.89° C | 54% | 1016.4 hPa | 0 mm | - | 237 W/m² | - |
| 1777662074 | 18.89° C | 54% | 1016.1 hPa | 0 mm | - | 345 W/m² | - |
| 1777661755 | 18.89° C | 54% | 1015.9 hPa | 0 mm | - | 436 W/m² | - |
* Rain latest hour (hover to see other rain measurements)
** Current wind speed in m/s (hover to see current wind gust speed)